createdAt,value
2022-07-30T00:00:10.987Z,16.23
2022-07-30T00:01:11.033Z,16.23
2022-07-30T00:02:10.968Z,16.22
2022-07-30T00:03:10.926Z,16.22
2022-07-30T00:04:10.955Z,16.22
2022-07-30T00:05:10.914Z,16.22
2022-07-30T00:06:10.899Z,16.22
2022-07-30T00:07:10.923Z,16.17
2022-07-30T00:08:10.864Z,16.18
2022-07-30T00:09:10.883Z,16.17
2022-07-30T00:10:10.858Z,16.16
2022-07-30T00:11:10.822Z,16.16
2022-07-30T00:12:10.825Z,16.14
2022-07-30T00:13:10.817Z,16.14
2022-07-30T00:14:10.858Z,16.13
2022-07-30T00:15:10.805Z,16.13
2022-07-30T00:16:10.828Z,16.13
2022-07-30T00:17:10.843Z,16.08
2022-07-30T00:18:11.954Z,16.08
2022-07-30T00:19:10.761Z,16.07
2022-07-30T00:20:10.729Z,16.06
2022-07-30T00:21:11.163Z,16.03
2022-07-30T00:22:10.718Z,16.01
2022-07-30T00:23:10.693Z,15.98
2022-07-30T00:24:10.727Z,15.96
2022-07-30T00:25:10.678Z,15.92
2022-07-30T00:26:10.662Z,15.92
2022-07-30T00:27:10.711Z,15.91
2022-07-30T00:28:10.635Z,15.89
2022-07-30T00:29:10.651Z,15.86
2022-07-30T00:30:10.638Z,15.84
2022-07-30T00:31:10.698Z,15.80
2022-07-30T00:32:10.606Z,15.76
2022-07-30T00:33:10.600Z,15.73
2022-07-30T00:34:10.636Z,15.70
2022-07-30T00:35:10.579Z,15.70
2022-07-30T00:36:10.673Z,15.67
2022-07-30T00:37:10.561Z,15.67
2022-07-30T00:38:10.551Z,15.67
2022-07-30T00:39:10.551Z,15.67
2022-07-30T00:40:10.498Z,15.67
2022-07-30T00:41:10.488Z,15.67
2022-07-30T00:42:10.505Z,15.66
2022-07-30T00:43:10.469Z,15.66
2022-07-30T00:44:10.531Z,15.66
2022-07-30T00:45:10.533Z,15.64
2022-07-30T00:46:10.606Z,15.60
2022-07-30T00:47:10.440Z,15.59
2022-07-30T00:48:10.475Z,15.60
2022-07-30T00:49:10.468Z,15.60
2022-07-30T00:50:10.584Z,15.59
2022-07-30T00:51:10.391Z,15.56
2022-07-30T00:52:10.462Z,15.56
2022-07-30T00:53:10.376Z,15.55
2022-07-30T00:54:10.372Z,15.53
2022-07-30T00:55:10.335Z,15.53
2022-07-30T00:56:10.361Z,15.52
2022-07-30T00:57:10.315Z,15.51
2022-07-30T00:58:10.305Z,15.51
2022-07-30T00:59:10.310Z,15.48
2022-07-30T01:00:10.276Z,15.48
2022-07-30T01:01:10.363Z,15.46
2022-07-30T01:02:10.314Z,15.46
2022-07-30T01:03:10.295Z,15.44
2022-07-30T01:04:10.301Z,15.41
2022-07-30T01:05:10.248Z,15.41
2022-07-30T01:06:14.156Z,15.38
2022-07-30T01:07:10.241Z,15.35
2022-07-30T01:08:10.178Z,15.34
2022-07-30T01:09:10.183Z,15.31
2022-07-30T01:10:10.171Z,15.31
2022-07-30T01:11:10.152Z,15.28
2022-07-30T01:12:10.183Z,15.28
2022-07-30T01:13:10.213Z,15.25
2022-07-30T01:14:10.131Z,15.27
2022-07-30T01:15:10.155Z,15.23
2022-07-30T01:16:10.132Z,15.22
2022-07-30T01:17:10.127Z,15.20
2022-07-30T01:18:10.059Z,15.22
2022-07-30T01:19:10.061Z,15.22
2022-07-30T01:20:10.131Z,15.20
2022-07-30T01:21:10.057Z,15.18
2022-07-30T01:22:10.060Z,15.16
2022-07-30T01:23:10.027Z,15.18
2022-07-30T01:24:10.023Z,15.18
2022-07-30T01:25:09.987Z,15.16
2022-07-30T01:26:09.993Z,15.16
2022-07-30T01:27:09.981Z,15.16
2022-07-30T01:28:10.111Z,15.16
2022-07-30T01:29:09.970Z,15.13
2022-07-30T01:30:09.940Z,15.12
2022-07-30T01:31:09.961Z,15.15
2022-07-30T01:32:09.938Z,15.12
2022-07-30T01:33:09.905Z,15.13
2022-07-30T01:34:09.894Z,15.11
2022-07-30T01:35:09.940Z,15.12
2022-07-30T01:36:09.884Z,15.12
2022-07-30T01:37:09.881Z,15.11
2022-07-30T01:38:09.902Z,15.07
2022-07-30T01:39:09.827Z,15.07
2022-07-30T01:40:09.818Z,15.04
2022-07-30T01:41:09.847Z,15.04
2022-07-30T01:42:09.848Z,15.03
2022-07-30T01:43:09.821Z,15.01
2022-07-30T01:44:09.779Z,15.03
2022-07-30T01:45:09.807Z,14.98
2022-07-30T01:46:09.794Z,14.95
2022-07-30T01:47:09.762Z,14.91
2022-07-30T01:48:09.731Z,14.87
2022-07-30T01:49:09.756Z,14.83
2022-07-30T01:50:10.984Z,14.82
2022-07-30T01:51:10.480Z,14.80
2022-07-30T01:52:09.711Z,14.82
2022-07-30T01:53:09.751Z,14.80
2022-07-30T01:54:09.669Z,14.80
2022-07-30T01:55:11.639Z,14.80
2022-07-30T01:56:10.809Z,14.82
2022-07-30T01:57:09.656Z,14.82
2022-07-30T01:58:09.608Z,14.80
2022-07-30T01:59:09.611Z,14.82
2022-07-30T02:00:09.590Z,14.82
2022-07-30T02:01:09.692Z,14.83
2022-07-30T02:02:09.569Z,14.83
2022-07-30T02:03:09.653Z,14.83
2022-07-30T02:04:09.551Z,14.83
2022-07-30T02:05:09.550Z,14.83
2022-07-30T02:06:09.534Z,14.83
2022-07-30T02:07:09.638Z,14.82
2022-07-30T02:08:09.531Z,14.82
2022-07-30T02:09:11.164Z,14.83
2022-07-30T02:10:09.468Z,14.82
2022-07-30T02:11:09.464Z,14.82
2022-07-30T02:12:09.453Z,14.82
2022-07-30T02:13:09.501Z,14.79
2022-07-30T02:14:09.434Z,14.78
2022-07-30T02:15:09.410Z,14.78
2022-07-30T02:16:09.479Z,14.75
2022-07-30T02:17:18.816Z,14.75
2022-07-30T02:18:09.427Z,14.75
2022-07-30T02:19:09.368Z,14.75
2022-07-30T02:20:09.994Z,14.75
2022-07-30T02:21:11.556Z,14.75
2022-07-30T02:22:09.345Z,14.79
2022-07-30T02:23:09.342Z,14.78
2022-07-30T02:24:09.310Z,14.75
2022-07-30T02:25:09.329Z,14.75
2022-07-30T02:26:09.379Z,14.78
2022-07-30T02:27:09.305Z,14.78
2022-07-30T02:28:09.323Z,14.75
2022-07-30T02:29:11.357Z,14.75
2022-07-30T02:30:09.254Z,14.75
2022-07-30T02:31:17.303Z,14.74
2022-07-30T02:32:09.231Z,14.74
2022-07-30T02:33:09.277Z,14.72
2022-07-30T02:34:09.212Z,14.72
2022-07-30T02:35:09.190Z,14.71
2022-07-30T02:36:11.351Z,14.71
2022-07-30T02:37:09.195Z,14.69
2022-07-30T02:38:09.175Z,14.71
2022-07-30T02:39:09.150Z,14.72
2022-07-30T02:40:09.156Z,14.69
2022-07-30T02:41:09.119Z,14.71
2022-07-30T02:42:09.114Z,14.69
2022-07-30T02:43:09.135Z,14.69
2022-07-30T02:44:09.078Z,14.67
2022-07-30T02:45:09.097Z,14.66
2022-07-30T02:46:09.087Z,14.67
2022-07-30T02:47:09.161Z,14.67
2022-07-30T02:48:09.073Z,14.67
2022-07-30T02:49:09.077Z,14.67
2022-07-30T02:50:09.022Z,14.66
2022-07-30T02:51:09.044Z,14.66
2022-07-30T02:52:09.009Z,14.66
2022-07-30T02:53:09.005Z,14.66
2022-07-30T02:54:08.993Z,14.64
2022-07-30T02:55:09.081Z,14.66
2022-07-30T02:56:08.960Z,14.64
2022-07-30T02:57:08.982Z,14.63
2022-07-30T02:58:08.933Z,14.63
2022-07-30T02:59:08.960Z,14.63
2022-07-30T03:00:08.920Z,14.60
2022-07-30T03:01:09.001Z,14.56
2022-07-30T03:02:08.932Z,14.57
2022-07-30T03:03:08.884Z,14.56
2022-07-30T03:04:08.919Z,14.57
2022-07-30T03:05:08.880Z,14.57
2022-07-30T03:06:08.845Z,14.57
2022-07-30T03:07:09.320Z,14.59
2022-07-30T03:08:08.824Z,14.57
2022-07-30T03:09:08.852Z,14.57
2022-07-30T03:10:08.825Z,14.54
2022-07-30T03:11:08.801Z,14.54
2022-07-30T03:12:08.847Z,14.54
2022-07-30T03:13:08.779Z,14.49
2022-07-30T03:14:08.819Z,14.48
2022-07-30T03:15:08.734Z,14.46
2022-07-30T03:16:08.785Z,14.46
2022-07-30T03:17:08.719Z,14.46
2022-07-30T03:18:08.732Z,14.45
2022-07-30T03:19:08.755Z,14.46
2022-07-30T03:20:08.683Z,14.46
2022-07-30T03:21:08.674Z,14.46
2022-07-30T03:22:08.696Z,14.46
2022-07-30T03:23:08.657Z,14.45
2022-07-30T03:24:08.664Z,14.48
2022-07-30T03:25:08.633Z,14.48
2022-07-30T03:26:08.669Z,14.48
2022-07-30T03:27:08.609Z,14.49
2022-07-30T03:28:08.593Z,14.49
2022-07-30T03:29:08.651Z,14.49
2022-07-30T03:30:08.570Z,14.49
2022-07-30T03:31:08.627Z,14.46
2022-07-30T03:32:08.549Z,14.46
2022-07-30T03:33:08.562Z,14.44
2022-07-30T03:34:08.550Z,14.45
2022-07-30T03:35:08.690Z,14.45
2022-07-30T03:36:08.507Z,14.45
2022-07-30T03:37:08.551Z,14.44
2022-07-30T03:38:08.486Z,14.42
2022-07-30T03:39:08.501Z,14.42
2022-07-30T03:40:08.470Z,14.39
2022-07-30T03:41:08.445Z,14.36
2022-07-30T03:42:08.443Z,14.38
2022-07-30T03:43:18.323Z,14.36
2022-07-30T03:44:08.447Z,14.34
2022-07-30T03:45:08.405Z,14.34
2022-07-30T03:46:08.423Z,14.31
2022-07-30T03:47:08.413Z,14.30
2022-07-30T03:48:08.369Z,14.30
2022-07-30T03:49:08.425Z,14.29
2022-07-30T03:50:08.410Z,14.27
2022-07-30T03:51:08.354Z,14.29
2022-07-30T03:52:08.390Z,14.26
2022-07-30T03:53:08.353Z,14.24
2022-07-30T03:54:11.684Z,14.21
2022-07-30T03:55:08.320Z,14.19
2022-07-30T03:56:08.288Z,14.16
2022-07-30T03:57:08.372Z,14.12
2022-07-30T03:58:08.267Z,14.12
2022-07-30T03:59:08.645Z,14.11
2022-07-30T04:00:08.254Z,14.11
2022-07-30T04:01:08.281Z,14.11
2022-07-30T04:02:08.276Z,14.11
2022-07-30T04:03:08.214Z,14.11
2022-07-30T04:04:08.303Z,14.11
2022-07-30T04:05:08.231Z,14.11
2022-07-30T04:06:08.195Z,14.11
2022-07-30T04:07:08.172Z,14.12
2022-07-30T04:08:08.142Z,14.13
2022-07-30T04:09:08.141Z,14.16
2022-07-30T04:10:08.191Z,14.16
2022-07-30T04:11:08.111Z,14.17
2022-07-30T04:12:08.097Z,14.19
2022-07-30T04:13:09.729Z,14.19
2022-07-30T04:14:08.098Z,14.19
2022-07-30T04:16:05.996Z,14.19
2022-07-30T04:16:46.506Z,14.17
2022-07-30T04:17:08.115Z,14.17
2022-07-30T04:18:08.061Z,14.13
2022-07-30T04:19:08.046Z,14.13
2022-07-30T04:20:08.000Z,14.16
2022-07-30T04:21:08.056Z,14.17
2022-07-30T04:22:08.002Z,14.17
2022-07-30T04:23:08.005Z,14.19
2022-07-30T04:24:08.046Z,14.19
2022-07-30T04:25:07.965Z,14.19
2022-07-30T04:26:07.975Z,14.20
2022-07-30T04:27:07.947Z,14.21
2022-07-30T04:28:07.921Z,14.21
2022-07-30T04:29:07.973Z,14.24
2022-07-30T04:30:07.920Z,14.26
2022-07-30T04:31:07.939Z,14.27
2022-07-30T04:32:07.909Z,14.30
2022-07-30T04:33:07.868Z,14.31
2022-07-30T04:34:07.879Z,14.34
2022-07-30T04:35:07.852Z,14.35
2022-07-30T04:36:07.866Z,14.35
2022-07-30T04:37:07.841Z,14.38
2022-07-30T04:38:07.861Z,14.39
2022-07-30T04:39:07.812Z,14.44
2022-07-30T04:40:07.791Z,14.45
2022-07-30T04:41:07.807Z,14.46
2022-07-30T04:42:07.779Z,14.49
2022-07-30T04:43:07.805Z,14.53
2022-07-30T04:44:07.752Z,14.56
2022-07-30T04:45:07.749Z,14.57
2022-07-30T04:46:07.827Z,14.63
2022-07-30T04:47:07.733Z,14.64
2022-07-30T04:48:07.709Z,14.64
2022-07-30T04:49:07.923Z,14.69
2022-07-30T04:50:07.697Z,14.69
2022-07-30T04:51:07.695Z,14.75
2022-07-30T04:52:07.659Z,14.79
2022-07-30T04:53:07.671Z,14.80
2022-07-30T04:54:07.684Z,14.83
2022-07-30T04:55:07.639Z,14.85
2022-07-30T04:56:07.623Z,14.91
2022-07-30T04:57:07.964Z,14.93
2022-07-30T04:58:07.621Z,14.97
2022-07-30T04:59:07.594Z,14.98
2022-07-30T05:00:07.818Z,15.01
2022-07-30T05:01:07.558Z,15.03
2022-07-30T05:02:07.688Z,15.04
2022-07-30T05:03:07.580Z,15.11
2022-07-30T05:04:07.527Z,15.16
2022-07-30T05:05:07.612Z,15.19
2022-07-30T05:06:07.550Z,15.19
2022-07-30T05:07:07.502Z,15.20
2022-07-30T05:08:07.491Z,15.19
2022-07-30T05:09:07.483Z,15.22
2022-07-30T05:10:07.578Z,15.23
2022-07-30T05:11:07.470Z,15.28
2022-07-30T05:12:07.449Z,15.30
2022-07-30T05:13:08.047Z,15.33
2022-07-30T05:14:07.411Z,15.38
2022-07-30T05:15:07.408Z,15.40
2022-07-30T05:16:07.437Z,15.43
2022-07-30T05:17:07.418Z,15.49
2022-07-30T05:18:07.395Z,15.56
2022-07-30T05:19:07.359Z,15.59
2022-07-30T05:20:07.394Z,15.66
2022-07-30T05:21:07.334Z,15.70
2022-07-30T05:22:07.347Z,15.76
2022-07-30T05:23:07.345Z,15.80
2022-07-30T05:24:07.302Z,15.84
2022-07-30T05:25:15.838Z,15.88
2022-07-30T05:26:07.280Z,15.86
2022-07-30T05:27:07.273Z,15.78
2022-07-30T05:28:07.281Z,15.80
2022-07-30T05:29:08.240Z,15.78
2022-07-30T05:30:08.078Z,15.81
2022-07-30T05:31:08.177Z,15.80
2022-07-30T05:32:07.392Z,15.84
2022-07-30T05:33:10.309Z,15.85
2022-07-30T05:34:07.206Z,15.88
2022-07-30T05:35:07.195Z,15.92
2022-07-30T05:36:07.161Z,15.98
2022-07-30T05:37:07.157Z,16.04
2022-07-30T05:38:07.146Z,16.10
2022-07-30T05:39:07.268Z,16.13
2022-07-30T05:40:07.164Z,16.17
2022-07-30T05:41:30.757Z,16.25
2022-07-30T05:42:07.085Z,16.29
2022-07-30T05:43:07.073Z,16.34
2022-07-30T05:44:07.065Z,16.37
2022-07-30T05:45:07.109Z,16.45
2022-07-30T05:46:07.157Z,16.48
2022-07-30T05:47:07.028Z,16.54
2022-07-30T05:48:07.020Z,16.59
2022-07-30T05:49:07.072Z,16.63
2022-07-30T05:50:07.083Z,16.67
2022-07-30T05:51:07.203Z,16.72
2022-07-30T05:52:06.989Z,16.75
2022-07-30T05:53:06.968Z,16.81
2022-07-30T05:54:06.944Z,16.84
2022-07-30T05:55:06.945Z,16.87
2022-07-30T05:56:06.999Z,16.91
2022-07-30T05:57:06.909Z,16.92
2022-07-30T05:58:06.897Z,16.98
2022-07-30T05:59:07.008Z,17.03
2022-07-30T06:00:06.880Z,17.06
2022-07-30T06:01:06.901Z,17.10
2022-07-30T06:02:06.969Z,17.17
2022-07-30T06:03:06.876Z,17.20
2022-07-30T06:04:06.877Z,17.25
2022-07-30T06:05:06.846Z,17.33
2022-07-30T06:06:06.836Z,17.38
2022-07-30T06:07:06.866Z,17.39
2022-07-30T06:08:06.850Z,17.43
2022-07-30T06:09:06.843Z,17.49
2022-07-30T06:10:06.784Z,17.53
2022-07-30T06:11:06.745Z,17.55
2022-07-30T06:12:06.816Z,17.62
2022-07-30T06:13:06.771Z,17.65
2022-07-30T06:14:06.722Z,17.70
2022-07-30T06:15:06.734Z,17.77
2022-07-30T06:16:06.793Z,17.81
2022-07-30T06:17:06.697Z,17.87
2022-07-30T06:18:06.831Z,17.92
2022-07-30T06:19:07.038Z,17.95
2022-07-30T06:20:06.736Z,17.99
2022-07-30T06:21:06.740Z,18.04
2022-07-30T06:22:07.291Z,18.09
2022-07-30T06:23:06.668Z,18.13
2022-07-30T06:24:06.609Z,18.14
2022-07-30T06:25:06.604Z,18.17
2022-07-30T06:26:06.657Z,18.21
2022-07-30T06:27:06.613Z,18.26
2022-07-30T06:28:27.376Z,18.29
2022-07-30T06:29:06.648Z,18.32
2022-07-30T06:30:06.563Z,18.35
2022-07-30T06:31:06.647Z,18.38
2022-07-30T06:32:06.546Z,18.39
2022-07-30T06:33:06.529Z,18.39
2022-07-30T06:34:06.497Z,18.41
2022-07-30T06:35:06.519Z,18.46
2022-07-30T06:36:06.481Z,18.51
2022-07-30T06:37:06.467Z,18.54
2022-07-30T06:38:07.729Z,18.59
2022-07-30T06:39:06.434Z,18.65
2022-07-30T06:40:06.501Z,18.71
2022-07-30T06:41:06.453Z,18.76
2022-07-30T06:42:06.441Z,18.76
2022-07-30T06:43:06.397Z,18.83
2022-07-30T06:44:06.389Z,18.89
2022-07-30T06:45:06.444Z,18.93
2022-07-30T06:46:06.444Z,18.97
2022-07-30T06:47:08.220Z,19.02
2022-07-30T06:48:06.424Z,19.07
2022-07-30T06:49:06.388Z,19.13
2022-07-30T06:50:06.323Z,19.21
2022-07-30T06:51:06.486Z,19.23
2022-07-30T06:52:06.294Z,19.23
2022-07-30T06:53:06.292Z,19.25
2022-07-30T06:54:06.274Z,19.25
2022-07-30T06:55:06.258Z,19.24
2022-07-30T06:56:06.249Z,19.31
2022-07-30T06:57:06.429Z,19.32
2022-07-30T06:58:06.266Z,19.42
2022-07-30T06:59:06.416Z,19.47
2022-07-30T07:00:06.214Z,19.52
2022-07-30T07:01:11.191Z,19.55
2022-07-30T07:02:06.198Z,19.58
2022-07-30T07:03:11.275Z,19.65
2022-07-30T07:04:06.224Z,19.70
2022-07-30T07:05:06.208Z,19.76
2022-07-30T07:06:06.140Z,19.82
2022-07-30T07:07:12.582Z,19.87
2022-07-30T07:08:06.170Z,19.90
2022-07-30T07:09:06.120Z,19.97
2022-07-30T07:10:06.102Z,20.00
2022-07-30T07:11:06.119Z,20.02
2022-07-30T07:12:06.061Z,20.02
2022-07-30T07:13:06.062Z,20.00
2022-07-30T07:14:06.062Z,20.04
2022-07-30T07:15:06.051Z,20.08
2022-07-30T07:16:06.013Z,20.12
2022-07-30T07:17:06.448Z,20.17
2022-07-30T07:18:06.012Z,20.19
2022-07-30T07:19:06.037Z,20.25
2022-07-30T07:20:06.087Z,20.33
2022-07-30T07:21:05.961Z,20.38
2022-07-30T07:22:05.951Z,20.41
2022-07-30T07:23:09.420Z,20.50
2022-07-30T07:24:05.998Z,20.40
2022-07-30T07:25:05.924Z,20.40
2022-07-30T07:26:05.996Z,20.44
2022-07-30T07:27:05.908Z,20.51
2022-07-30T07:28:11.104Z,20.56
2022-07-30T07:29:05.910Z,20.57
2022-07-30T07:30:06.386Z,20.61
2022-07-30T07:31:05.892Z,20.63
2022-07-30T07:32:08.086Z,20.60
2022-07-30T07:33:05.850Z,20.69
2022-07-30T07:34:05.824Z,20.76
2022-07-30T07:35:05.868Z,20.75
2022-07-30T07:36:05.855Z,20.71
2022-07-30T07:37:05.813Z,20.64
2022-07-30T07:38:05.790Z,20.64
2022-07-30T07:39:05.832Z,20.63
2022-07-30T07:40:05.757Z,20.72
2022-07-30T07:41:05.765Z,20.75
2022-07-30T07:42:05.770Z,20.75
2022-07-30T07:43:05.726Z,20.87
2022-07-30T07:44:05.736Z,20.94
2022-07-30T07:45:05.689Z,21.03
2022-07-30T07:46:05.794Z,20.93
2022-07-30T07:47:05.674Z,20.96
2022-07-30T07:48:05.698Z,20.88
2022-07-30T07:49:05.740Z,20.83
2022-07-30T07:50:05.869Z,20.96
2022-07-30T07:51:09.587Z,21.03
2022-07-30T07:52:05.692Z,21.09
2022-07-30T07:53:05.601Z,21.13
2022-07-30T07:54:21.036Z,21.13
2022-07-30T07:55:05.598Z,21.21
2022-07-30T07:56:05.580Z,21.31
2022-07-30T07:57:05.957Z,21.33
2022-07-30T07:58:05.558Z,21.40
2022-07-30T07:59:05.568Z,21.42
2022-07-30T08:00:05.526Z,21.48
2022-07-30T08:01:05.579Z,21.49
2022-07-30T08:02:05.572Z,21.31
2022-07-30T08:03:05.550Z,21.27
2022-07-30T08:04:10.474Z,21.30
2022-07-30T08:05:05.465Z,21.34
2022-07-30T08:06:06.646Z,21.31
2022-07-30T08:07:05.613Z,21.27
2022-07-30T08:08:05.483Z,21.24
2022-07-30T08:09:05.481Z,21.31
2022-07-30T08:10:05.439Z,21.45
2022-07-30T08:11:05.396Z,21.42
2022-07-30T08:12:05.397Z,21.43
2022-07-30T08:13:05.384Z,21.31
2022-07-30T08:14:05.396Z,21.37
2022-07-30T08:15:05.412Z,21.45
2022-07-30T08:16:05.369Z,21.52
2022-07-30T08:17:05.814Z,21.66
2022-07-30T08:18:05.334Z,21.70
2022-07-30T08:19:05.313Z,21.82
2022-07-30T08:20:05.306Z,21.91
2022-07-30T08:21:05.297Z,21.99
2022-07-30T08:22:05.314Z,21.99
2022-07-30T08:23:05.279Z,22.02
2022-07-30T08:24:05.243Z,22.04
2022-07-30T08:25:05.320Z,22.05
2022-07-30T08:26:05.252Z,21.93
2022-07-30T08:27:05.536Z,21.90
2022-07-30T08:28:05.210Z,21.82
2022-07-30T08:29:05.232Z,21.82
2022-07-30T08:30:05.205Z,21.86
2022-07-30T08:31:05.187Z,21.77
2022-07-30T08:32:05.487Z,21.75
2022-07-30T08:33:05.178Z,21.86
2022-07-30T08:34:05.181Z,21.93
2022-07-30T08:35:05.173Z,21.94
2022-07-30T08:36:09.546Z,21.96
2022-07-30T08:37:05.128Z,22.04
2022-07-30T08:38:05.096Z,22.19
2022-07-30T08:39:05.138Z,22.26
2022-07-30T08:40:05.137Z,22.33
2022-07-30T08:41:05.055Z,22.46
2022-07-30T08:42:05.361Z,22.57
2022-07-30T08:43:05.117Z,22.69
2022-07-30T08:44:07.878Z,22.79
2022-07-30T08:45:05.154Z,22.93
2022-07-30T08:46:05.006Z,23.06
2022-07-30T08:47:05.389Z,23.09
2022-07-30T08:48:04.979Z,23.01
2022-07-30T08:49:07.762Z,23.04
2022-07-30T08:50:04.985Z,22.99
2022-07-30T08:51:05.015Z,23.03
2022-07-30T08:52:05.296Z,23.14
2022-07-30T08:53:05.177Z,23.21
2022-07-30T08:54:04.999Z,23.22
2022-07-30T08:55:04.925Z,23.21
2022-07-30T08:56:04.905Z,23.25
2022-07-30T08:57:04.906Z,23.29
2022-07-30T08:58:04.906Z,23.34
2022-07-30T08:59:04.868Z,23.44
2022-07-30T09:00:04.894Z,23.47
2022-07-30T09:01:04.845Z,23.53
2022-07-30T09:02:08.929Z,23.53
2022-07-30T09:03:04.844Z,23.56
2022-07-30T09:05:04.815Z,23.21
2022-07-30T09:06:04.785Z,23.25
2022-07-30T09:07:04.986Z,23.34
2022-07-30T09:08:08.550Z,23.37
2022-07-30T09:09:04.763Z,23.52
2022-07-30T09:10:04.748Z,23.60
2022-07-30T09:11:04.952Z,23.41
2022-07-30T09:12:04.717Z,23.41
2022-07-30T09:13:04.760Z,23.34
2022-07-30T09:14:08.375Z,23.44
2022-07-30T09:15:04.671Z,23.52
2022-07-30T09:16:04.743Z,23.57
2022-07-30T09:17:05.300Z,23.72
2022-07-30T09:18:04.698Z,23.75
2022-07-30T09:19:04.666Z,23.57
2022-07-30T09:20:04.652Z,23.68
2022-07-30T09:21:04.639Z,23.82
2022-07-30T09:22:04.623Z,23.78
2022-07-30T09:23:04.611Z,23.60
2022-07-30T09:24:04.759Z,23.64
2022-07-30T09:25:04.580Z,23.74
2022-07-30T09:26:04.549Z,23.63
2022-07-30T09:27:04.974Z,23.59
2022-07-30T09:28:15.818Z,23.59
2022-07-30T09:29:04.589Z,23.64
2022-07-30T09:30:04.820Z,23.79
2022-07-30T09:31:04.522Z,23.93
2022-07-30T09:32:04.994Z,23.90
2022-07-30T09:33:04.517Z,23.86
2022-07-30T09:34:04.522Z,24.04
2022-07-30T09:35:06.278Z,24.21
2022-07-30T09:36:04.961Z,24.37
2022-07-30T09:37:04.442Z,24.46
2022-07-30T09:38:06.681Z,24.68
2022-07-30T09:39:04.439Z,24.86
2022-07-30T09:40:04.415Z,24.98
2022-07-30T09:41:12.222Z,25.08
2022-07-30T09:42:04.878Z,25.07
2022-07-30T09:43:05.242Z,24.94
2022-07-30T09:44:04.489Z,24.93
2022-07-30T09:45:04.728Z,24.83
2022-07-30T09:46:04.388Z,24.44
2022-07-30T09:47:04.362Z,24.42
2022-07-30T09:48:04.325Z,24.59
2022-07-30T09:49:04.346Z,24.77
2022-07-30T09:50:06.933Z,24.87
2022-07-30T09:51:04.306Z,25.02
2022-07-30T09:52:04.302Z,25.22
2022-07-30T09:53:04.284Z,25.38
2022-07-30T09:54:04.270Z,25.60
2022-07-30T09:55:04.260Z,25.72
2022-07-30T09:56:04.284Z,25.78
2022-07-30T09:57:04.229Z,25.86
2022-07-30T09:58:04.206Z,25.91
2022-07-30T09:59:05.129Z,26.06
2022-07-30T10:00:04.202Z,26.13
2022-07-30T10:01:04.201Z,25.54
2022-07-30T10:02:05.166Z,25.48
2022-07-30T10:03:12.605Z,25.41
2022-07-30T10:04:04.196Z,25.56
2022-07-30T10:05:04.143Z,25.44
2022-07-30T10:06:04.135Z,25.36
2022-07-30T10:07:04.446Z,24.87
2022-07-30T10:08:09.290Z,24.63
2022-07-30T10:09:13.888Z,24.79
2022-07-30T10:10:06.320Z,24.92
2022-07-30T10:11:08.478Z,24.83
2022-07-30T10:12:04.450Z,24.99
2022-07-30T10:13:05.509Z,24.87
2022-07-30T10:14:04.672Z,24.98
2022-07-30T10:15:06.173Z,25.20
2022-07-30T10:16:04.505Z,25.39
2022-07-30T10:17:04.010Z,25.57
2022-07-30T10:18:06.021Z,25.75
2022-07-30T10:19:04.278Z,25.76
2022-07-30T10:20:08.188Z,25.71
2022-07-30T10:21:05.397Z,25.83
2022-07-30T10:22:04.487Z,26.06
2022-07-30T10:23:08.316Z,26.31
2022-07-30T10:24:04.202Z,26.56
2022-07-30T10:25:05.283Z,26.17
2022-07-30T10:26:03.990Z,26.03
2022-07-30T10:27:06.311Z,26.19
2022-07-30T10:28:03.880Z,26.27
2022-07-30T10:29:03.901Z,26.47
2022-07-30T10:30:04.253Z,26.47
2022-07-30T10:31:47.163Z,26.35
2022-07-30T10:32:03.871Z,26.16
2022-07-30T10:33:03.817Z,25.97
2022-07-30T10:34:03.849Z,25.76
2022-07-30T10:35:05.886Z,25.63
2022-07-30T10:36:03.841Z,25.71
2022-07-30T10:37:04.683Z,25.81
2022-07-30T10:38:03.808Z,25.79
2022-07-30T10:39:03.839Z,25.93
2022-07-30T10:40:03.759Z,26.21
2022-07-30T10:41:03.792Z,26.47
2022-07-30T10:42:03.730Z,26.49
2022-07-30T10:43:03.757Z,26.39
2022-07-30T10:44:03.704Z,26.59
2022-07-30T10:45:04.235Z,26.88
2022-07-30T10:46:05.033Z,27.12
2022-07-30T10:47:07.156Z,27.30
2022-07-30T10:48:03.663Z,27.46
2022-07-30T10:49:03.740Z,27.61
2022-07-30T10:50:03.682Z,27.59
2022-07-30T10:51:04.188Z,27.48
2022-07-30T10:52:03.624Z,27.31
2022-07-30T10:53:03.662Z,26.96
2022-07-30T10:54:03.641Z,26.71
2022-07-30T10:55:03.619Z,26.64
2022-07-30T10:56:03.584Z,26.59
2022-07-30T10:57:04.051Z,26.60
2022-07-30T10:58:03.545Z,26.78
2022-07-30T10:59:03.609Z,26.91
2022-07-30T11:00:03.909Z,26.98
2022-07-30T11:01:03.541Z,26.68
2022-07-30T11:02:03.907Z,26.46
2022-07-30T11:03:14.123Z,26.38
2022-07-30T11:04:03.502Z,26.65
2022-07-30T11:05:03.502Z,26.86
2022-07-30T11:06:03.454Z,26.69
2022-07-30T11:07:03.758Z,26.44
2022-07-30T11:08:03.439Z,26.66
2022-07-30T11:09:03.448Z,26.93
2022-07-30T11:10:09.043Z,27.13
2022-07-30T11:11:19.442Z,27.31
2022-07-30T11:12:06.533Z,27.43
2022-07-30T11:13:03.451Z,27.61
2022-07-30T11:14:03.423Z,27.52
2022-07-30T11:15:07.495Z,27.61
2022-07-30T11:16:03.353Z,27.59
2022-07-30T11:17:03.339Z,27.28
2022-07-30T11:18:03.490Z,27.02
2022-07-30T11:19:19.562Z,26.83
2022-07-30T11:20:03.342Z,26.51
2022-07-30T11:21:03.332Z,26.60
2022-07-30T11:22:03.706Z,26.72
2022-07-30T11:23:03.304Z,26.87
2022-07-30T11:24:03.297Z,27.09
2022-07-30T11:25:12.749Z,27.35
2022-07-30T11:26:03.244Z,27.31
2022-07-30T11:27:03.250Z,26.84
2022-07-30T11:28:03.247Z,26.54
2022-07-30T11:29:03.214Z,26.76
2022-07-30T11:30:03.224Z,27.15
2022-07-30T11:31:10.074Z,27.49
2022-07-30T11:32:06.784Z,27.42
2022-07-30T11:33:04.498Z,26.86
2022-07-30T11:34:03.209Z,27.03
2022-07-30T11:35:03.165Z,26.96
2022-07-30T11:36:03.135Z,26.60
2022-07-30T11:37:03.113Z,26.83
2022-07-30T11:38:03.112Z,26.73
2022-07-30T11:39:03.718Z,26.86
2022-07-30T11:40:03.077Z,27.25
2022-07-30T11:41:03.075Z,27.59
2022-07-30T11:42:03.471Z,27.80
2022-07-30T11:43:03.047Z,27.80
2022-07-30T11:44:03.067Z,28.13
2022-07-30T11:45:04.183Z,28.15
2022-07-30T11:46:03.015Z,27.93
2022-07-30T11:47:03.011Z,28.01
2022-07-30T11:48:03.086Z,27.96
2022-07-30T11:49:03.091Z,27.72
2022-07-30T11:50:02.960Z,27.71
2022-07-30T11:51:04.042Z,27.81
2022-07-30T11:52:03.363Z,27.77
2022-07-30T11:53:02.926Z,27.83
2022-07-30T11:54:03.005Z,27.95
2022-07-30T11:55:02.917Z,28.17
2022-07-30T11:56:02.907Z,28.40
2022-07-30T11:57:04.800Z,28.57
2022-07-30T11:58:02.884Z,28.73
2022-07-30T11:59:02.899Z,28.95
2022-07-30T12:00:02.914Z,28.95
2022-07-30T12:01:02.842Z,28.77
2022-07-30T12:02:03.058Z,28.80
2022-07-30T12:03:04.274Z,28.89
2022-07-30T12:04:02.847Z,29.03
2022-07-30T12:05:02.837Z,29.03
2022-07-30T12:06:02.798Z,28.76
2022-07-30T12:07:03.006Z,28.01
2022-07-30T12:08:02.773Z,27.91
2022-07-30T12:09:02.833Z,27.86
2022-07-30T12:10:02.777Z,27.84
2022-07-30T12:11:02.782Z,27.76
2022-07-30T12:12:02.738Z,27.81
2022-07-30T12:13:02.850Z,27.88
2022-07-30T12:14:02.709Z,28.17
2022-07-30T12:15:02.732Z,28.35
2022-07-30T12:16:02.729Z,28.28
2022-07-30T12:17:03.011Z,28.02
2022-07-30T12:18:25.359Z,27.66
2022-07-30T12:19:02.670Z,27.69
2022-07-30T12:20:02.637Z,27.83
2022-07-30T12:21:02.684Z,27.74
2022-07-30T12:22:02.631Z,28.06
2022-07-30T12:23:02.610Z,28.14
2022-07-30T12:24:02.990Z,28.35
2022-07-30T12:25:02.596Z,28.33
2022-07-30T12:26:02.640Z,28.52
2022-07-30T12:27:02.811Z,28.69
2022-07-30T12:28:02.569Z,28.61
2022-07-30T12:29:02.519Z,28.43
2022-07-30T12:30:02.650Z,27.95
2022-07-30T12:31:02.921Z,27.50
2022-07-30T12:32:02.507Z,27.02
2022-07-30T12:33:02.527Z,26.75
2022-07-30T12:34:02.540Z,26.90
2022-07-30T12:35:02.501Z,27.01
2022-07-30T12:36:02.447Z,26.94
2022-07-30T12:37:02.813Z,27.05
2022-07-30T12:38:02.468Z,27.40
2022-07-30T12:39:02.409Z,27.83
2022-07-30T12:40:02.451Z,27.99
2022-07-30T12:41:02.389Z,28.33
2022-07-30T12:42:02.426Z,28.45
2022-07-30T12:43:02.367Z,28.55
2022-07-30T12:44:02.354Z,28.33
2022-07-30T12:45:02.347Z,28.33
2022-07-30T12:46:02.377Z,28.43
2022-07-30T12:47:02.670Z,28.61
2022-07-30T12:48:02.334Z,28.60
2022-07-30T12:49:19.152Z,28.36
2022-07-30T12:50:02.459Z,28.42
2022-07-30T12:51:02.305Z,28.65
2022-07-30T12:52:02.286Z,28.74
2022-07-30T12:53:02.293Z,28.57